Avery, Oklahoma
Current Conditions -  °F | °C
As of 4:15 PM on Sunday 23 Nov 2014 (Local Time) from KCUH Reporting Station
Scattered Clouds Scattered Clouds  
Wind Chill: 59°   Ceiling: Unl
Heat Index: 59°   Visibility: 10mi
Dew Point: 50°   Wind: 10mph
Humidity: 72%   Direction: 290°WNW
Pressure: 29.38"   Gusts: NA
Location:  35.9968°N, 96.7376°W
Report Text: KCUH 232215Z AUTO 29009KT 10SM SCT037 SCT050 SCT065 15/10 A2938 RMK AO2
Loading
Personal Weather Stations






























Interactive Weather Map New forecast layout! Learn more

10-Day Weather Forecast

Advertisements
Track Severe Weather on mobile